Time;durP1;ratioP1;P1;durP2;ratioP2;P2;SDS_P1;SDS_P2;PMS_P1;PMS_P2;Temp;Humidity;BMP_temperature;BMP_pressure;BME280_temperature;BME280_humidity;BME280_pressure;Samples;Min_cycle;Max_cycle;Signal;HPM_P1;HPM_P2
2022/03/10 00:00:16;;;;;;;0.20;0.20;;;;;;;4.55;53.45;100954.38;5036010;28;20028;-73
2022/03/10 00:02:45;;;;;;;0.20;0.20;;;;;;;4.48;53.35;100957.53;5054375;28;20109;-73
2022/03/10 00:05:15;;;;;;;0.20;0.20;;;;;;;4.51;52.86;100954.16;5036770;28;20118;-73
2022/03/10 00:07:42;;;;;;;0.20;0.20;;;;;;;4.45;53.79;100963.63;5036521;28;20029;-73
2022/03/10 00:10:08;;;;;;;0.20;0.20;;;;;;;4.38;54.12;100968.72;5035957;28;20032;-73
2022/03/10 00:12:35;;;;;;;0.20;0.20;;;;;;;4.32;54.79;100967.19;5035983;28;20036;-73
2022/03/10 00:15:09;;;;;;;0.20;0.20;;;;;;;4.26;55.65;100958.19;5035984;28;20115;-73
2022/03/10 00:17:35;;;;;;;0.20;0.20;;;;;;;4.23;55.14;100947.75;5053306;28;20416;-73
2022/03/10 00:20:01;;;;;;;0.20;0.20;;;;;;;4.17;55.53;100958.03;5036211;28;20075;-73
2022/03/10 00:22:26;;;;;;;0.20;0.20;;;;;;;4.15;54.45;100962.22;5035530;28;20080;-73
2022/03/10 00:24:53;;;;;;;0.20;0.20;;;;;;;4.26;55.39;100958.19;5036309;28;20044;-73
2022/03/10 00:27:19;;;;;;;0.20;0.20;;;;;;;4.26;55.22;100965.59;5053976;28;20449;-73
2022/03/10 00:29:47;;;;;;;0.20;0.20;;;;;;;4.13;55.53;100957.00;5054063;28;20033;-73
2022/03/10 00:32:12;;;;;;;0.22;0.22;;;;;;;4.12;53.81;100952.63;5035905;28;20045;-73
2022/03/10 00:34:38;;;;;;;0.20;0.20;;;;;;;4.16;53.75;100970.19;5035723;28;20040;-73
2022/03/10 00:37:03;;;;;;;0.20;0.20;;;;;;;4.28;54.38;100960.63;5035281;28;20037;-73
2022/03/10 00:39:29;;;;;;;0.20;0.20;;;;;;;4.22;55.37;100956.34;5036102;28;20102;-73
2022/03/10 00:41:54;;;;;;;0.20;0.20;;;;;;;4.26;55.14;100954.59;5036099;28;20029;-73
2022/03/10 00:44:20;;;;;;;0.20;0.20;;;;;;;4.20;54.48;100960.19;5036134;28;20033;-73
2022/03/10 00:46:48;;;;;;;0.20;0.20;;;;;;;4.19;53.29;100960.50;5035974;28;20490;-73
2022/03/10 00:49:13;;;;;;;0.20;0.20;;;;;;;4.16;53.62;100952.84;5054066;28;20499;-73
2022/03/10 00:51:39;;;;;;;0.20;0.20;;;;;;;4.14;53.20;100950.38;5035455;28;20056;-74
2022/03/10 00:54:05;;;;;;;0.20;0.20;;;;;;;4.15;51.99;100957.50;5035749;28;20071;-73
2022/03/10 00:56:30;;;;;;;0.20;0.20;;;;;;;4.28;55.15;100955.13;5034722;28;20029;-73
2022/03/10 00:58:56;;;;;;;0.20;0.20;;;;;;;4.17;55.55;100955.28;5036010;28;20360;-73
2022/03/10 01:01:22;;;;;;;0.20;0.20;;;;;;;4.11;55.53;100956.50;5035132;28;20444;-73
2022/03/10 01:03:47;;;;;;;0.20;0.20;;;;;;;4.10;55.52;100949.38;5053996;28;20029;-73
2022/03/10 01:06:13;;;;;;;0.20;0.20;;;;;;;4.13;56.27;100959.75;5032985;28;20395;-73
2022/03/10 01:08:38;;;;;;;0.20;0.20;;;;;;;4.15;55.43;100957.50;5035642;28;20025;-73
2022/03/10 01:11:04;;;;;;;0.20;0.20;;;;;;;4.07;55.35;100946.38;5035637;28;20040;-73
2022/03/10 01:13:29;;;;;;;0.20;0.20;;;;;;;4.03;55.44;100934.31;5035228;28;20033;-73
2022/03/10 01:15:55;;;;;;;0.20;0.20;;;;;;;4.02;55.93;100950.03;5053629;28;20025;-73
2022/03/10 01:18:20;;;;;;;0.20;0.20;;;;;;;4.09;55.75;100938.63;5035664;28;20033;-73
2022/03/10 01:20:50;;;;;;;0.20;0.20;;;;;;;4.02;55.20;100941.78;5035469;28;20065;-73
2022/03/10 01:23:15;;;;;;;0.20;0.20;;;;;;;4.05;55.91;100940.34;5035566;28;20048;-73
2022/03/10 01:25:41;;;;;;;0.20;0.20;;;;;;;4.08;55.92;100943.31;5053388;28;20494;-73
2022/03/10 01:28:06;;;;;;;0.20;0.20;;;;;;;4.11;54.42;100944.66;5036347;28;20036;-73
2022/03/10 01:30:32;;;;;;;0.20;0.20;;;;;;;3.98;55.92;100934.41;5056592;28;20029;-73
2022/03/10 01:32:58;;;;;;;0.20;0.20;;;;;;;3.96;56.35;100948.47;5021148;28;20025;-73
2022/03/10 01:35:23;;;;;;;0.20;0.20;;;;;;;3.79;56.32;100926.19;5039197;28;20033;-73
2022/03/10 01:37:49;;;;;;;0.20;0.20;;;;;;;3.82;56.70;100942.09;5057530;28;20529;-74
2022/03/10 01:40:17;;;;;;;0.20;0.20;;;;;;;3.88;57.79;100940.88;5038594;28;20079;-73
2022/03/10 01:42:46;;;;;;;0.20;0.20;;;;;;;3.78;58.16;100939.13;5035562;28;20116;-73
2022/03/10 01:45:12;;;;;;;0.20;0.20;;;;;;;3.79;57.42;100931.69;5035464;28;20090;-74
2022/03/10 01:47:39;;;;;;;0.28;0.28;;;;;;;3.89;57.60;100935.09;5039045;28;20052;-73
2022/03/10 01:50:06;;;;;;;0.20;0.20;;;;;;;4.00;56.65;100941.25;5038460;28;20021;-73
2022/03/10 01:52:31;;;;;;;0.20;0.20;;;;;;;3.93;56.98;100932.56;5056387;28;20028;-74
2022/03/10 01:54:57;;;;;;;0.20;0.20;;;;;;;3.87;58.13;100931.00;5038530;28;20037;-74
2022/03/10 01:57:24;;;;;;;0.20;0.20;;;;;;;3.84;56.26;100939.88;5038381;28;20083;-74
2022/03/10 01:59:51;;;;;;;0.20;0.20;;;;;;;3.88;54.93;100947.22;5056484;28;20017;-74
2022/03/10 02:02:16;;;;;;;0.20;0.20;;;;;;;3.99;51.73;100941.53;5038182;28;20025;-74
2022/03/10 02:04:42;;;;;;;0.20;0.20;;;;;;;4.18;53.23;100942.34;5038511;28;20021;-73
2022/03/10 02:10:16;;;;;;;0.20;0.20;;;;;;;4.38;53.48;100939.22;5037883;28;20029;-74
2022/03/10 02:12:37;;;;;;;0.20;0.20;;;;;;;4.42;53.56;100942.19;5056374;28;20502;-74
2022/03/10 02:18:11;;;;;;;0.20;0.20;;;;;;;4.53;52.67;100945.56;5056122;28;20043;-74
2022/03/10 02:20:39;;;;;;;0.20;0.20;;;;;;;4.62;51.62;100943.75;5055709;28;20029;-74
2022/03/10 02:23:06;;;;;;;0.20;0.20;;;;;;;4.67;51.00;100940.91;5055612;28;20049;-74
2022/03/10 02:25:33;;;;;;;0.20;0.20;;;;;;;4.48;52.99;100938.22;5037819;28;20163;-74
2022/03/10 02:27:59;;;;;;;0.20;0.20;;;;;;;4.47;53.19;100947.59;5055901;28;20486;-74
2022/03/10 02:30:28;;;;;;;0.20;0.20;;;;;;;4.46;52.28;100948.72;5037870;28;20018;-74
2022/03/10 02:32:54;;;;;;;0.20;0.20;;;;;;;4.51;51.93;100954.16;5055306;28;20032;-74
2022/03/10 02:35:20;;;;;;;0.20;0.20;;;;;;;4.38;53.06;100954.94;5037675;28;20021;-74
2022/03/10 02:37:46;;;;;;;0.20;0.20;;;;;;;4.30;53.31;100941.84;5037209;28;20037;-73
2022/03/10 02:40:13;;;;;;;0.20;0.20;;;;;;;4.21;54.31;100939.00;5054993;28;20082;-74
2022/03/10 02:42:39;;;;;;;0.20;0.20;;;;;;;4.24;53.79;100943.06;5037519;28;20472;-73
2022/03/10 02:45:06;;;;;;;0.20;0.20;;;;;;;4.20;53.78;100945.59;5037667;28;20114;-73
2022/03/10 02:47:31;;;;;;;0.20;0.20;;;;;;;4.20;54.76;100940.91;5037357;28;20025;-74
2022/03/10 02:49:57;;;;;;;0.20;0.20;;;;;;;4.26;53.89;100943.56;5037869;28;20034;-73
2022/03/10 02:52:23;;;;;;;0.20;0.20;;;;;;;4.53;52.67;100951.06;5037272;28;20427;-74
2022/03/10 02:54:49;;;;;;;0.20;0.20;;;;;;;4.43;54.39;100941.91;5037729;28;20115;-74
2022/03/10 02:57:14;;;;;;;0.20;0.20;;;;;;;4.15;55.92;100929.97;5037461;28;20142;-74
2022/03/10 02:59:40;;;;;;;0.20;0.20;;;;;;;4.20;56.04;100940.09;5037374;28;20482;-73
2022/03/10 03:02:06;;;;;;;0.20;0.20;;;;;;;4.10;56.47;100949.38;5037151;28;20029;-74
2022/03/10 03:04:32;;;;;;;0.20;0.20;;;;;;;3.97;55.95;100941.84;5037024;28;20033;-74
2022/03/10 03:06:58;;;;;;;0.20;0.20;;;;;;;4.01;55.31;100944.84;5055058;28;20052;-74
2022/03/10 03:09:23;;;;;;;0.20;0.20;;;;;;;4.01;55.29;100939.31;5036924;28;20040;-74
2022/03/10 03:11:49;;;;;;;0.20;0.20;;;;;;;4.00;55.89;100956.97;5037240;28;20024;-73
2022/03/10 03:14:15;;;;;;;0.20;0.20;;;;;;;3.94;56.20;100956.22;5054708;28;20373;-73
2022/03/10 03:16:40;;;;;;;0.20;0.20;;;;;;;3.88;56.26;100946.41;5037001;28;20025;-73
2022/03/10 03:19:09;;;;;;;0.20;0.20;;;;;;;3.74;56.03;100918.81;5036975;28;20103;-73
2022/03/10 03:21:35;;;;;;;0.20;0.20;;;;;;;3.80;56.07;100941.59;5018194;28;20484;-74
2022/03/10 03:24:00;;;;;;;0.22;0.22;;;;;;;3.77;56.05;100942.16;5036788;28;20032;-73
2022/03/10 03:26:29;;;;;;;0.20;0.20;;;;;;;3.79;56.26;100948.22;5036738;28;20037;-73
2022/03/10 03:28:55;;;;;;;0.20;0.20;;;;;;;3.80;54.89;100938.84;5036889;28;20029;-73
2022/03/10 03:31:21;;;;;;;0.20;0.20;;;;;;;3.79;56.22;100949.03;5036836;28;20519;-73
2022/03/10 03:33:50;;;;;;;0.20;0.20;;;;;;;3.93;55.31;100947.13;5036830;28;20029;-73
2022/03/10 03:36:15;;;;;;;0.20;0.20;;;;;;;3.80;55.89;100942.41;5054670;28;20052;-73
2022/03/10 03:38:41;;;;;;;0.20;0.20;;;;;;;3.82;56.58;100948.41;5036453;28;20064;-73
2022/03/10 03:41:06;;;;;;;0.20;0.20;;;;;;;3.82;56.25;100953.91;5052960;28;20116;-73
2022/03/10 03:43:32;;;;;;;0.20;0.20;;;;;;;3.88;55.42;100946.41;5036359;28;20029;-73
2022/03/10 03:45:58;;;;;;;0.20;0.20;;;;;;;3.80;55.55;100950.66;5036539;28;20025;-73
2022/03/10 03:48:25;;;;;;;0.20;0.20;;;;;;;3.75;55.64;100917.69;5036266;28;20027;-73
2022/03/10 03:50:51;;;;;;;0.28;0.28;;;;;;;3.77;55.64;100958.69;5036094;28;20052;-73
2022/03/10 03:53:17;;;;;;;0.20;0.20;;;;;;;3.76;56.90;100954.31;5053639;28;20021;-73
2022/03/10 03:55:45;;;;;;;0.20;0.20;;;;;;;3.85;54.37;100949.75;5036480;28;20090;-74
2022/03/10 03:58:11;;;;;;;0.20;0.20;;;;;;;3.85;55.33;100949.75;5036358;28;20021;-73
2022/03/10 04:00:40;;;;;;;0.20;0.20;;;;;;;3.72;56.45;100961.50;5036331;28;20031;-73
2022/03/10 04:03:10;;;;;;;0.20;0.20;;;;;;;3.67;57.33;100963.25;5054546;28;20082;-73
2022/03/10 04:05:37;;;;;;;0.20;0.20;;;;;;;3.66;56.81;100964.34;5036468;28;20518;-73
2022/03/10 04:08:04;;;;;;;0.20;0.20;;;;;;;3.66;56.80;100950.56;5036532;28;20471;-73
2022/03/10 04:10:30;;;;;;;0.20;0.20;;;;;;;3.60;56.18;100953.72;5036496;28;20463;-73
2022/03/10 04:12:55;;;;;;;0.20;0.20;;;;;;;3.67;56.66;100951.41;5053845;28;20021;-73
2022/03/10 04:15:21;;;;;;;0.20;0.20;;;;;;;3.52;56.53;100933.19;5036586;28;20028;-73
2022/03/10 04:17:46;;;;;;;0.20;0.20;;;;;;;3.68;55.72;100959.38;5035921;28;20021;-73
2022/03/10 04:20:13;;;;;;;0.20;0.20;;;;;;;3.73;55.31;100955.72;5035919;28;20040;-73
2022/03/10 04:22:43;;;;;;;0.20;0.20;;;;;;;3.68;55.44;100951.13;5035532;28;20055;-73
2022/03/10 04:25:08;;;;;;;0.20;0.20;;;;;;;3.81;54.73;100956.97;5054741;28;20116;-73
2022/03/10 04:27:35;;;;;;;0.20;0.20;;;;;;;3.73;56.07;100954.88;5037014;28;20525;-74
2022/03/10 04:30:01;;;;;;;0.20;0.20;;;;;;;3.65;55.83;100959.13;5037391;28;20064;-74
2022/03/10 04:32:27;;;;;;;0.20;0.20;;;;;;;3.59;56.74;100963.09;5036850;28;20033;-73
2022/03/10 04:34:52;;;;;;;0.20;0.20;;;;;;;3.50;57.33;100973.13;5035874;28;20551;-73
2022/03/10 04:37:21;;;;;;;0.20;0.20;;;;;;;3.51;58.22;100972.81;5035446;28;20095;-73
2022/03/10 04:39:47;;;;;;;0.20;0.20;;;;;;;3.48;56.99;100976.16;5035704;28;20033;-73
2022/03/10 04:42:15;;;;;;;0.20;0.20;;;;;;;3.53;57.20;100976.09;5053149;28;20036;-73
2022/03/10 04:44:40;;;;;;;0.20;0.20;;;;;;;3.40;57.45;100969.38;5036142;28;20045;-73
2022/03/10 04:47:06;;;;;;;0.20;0.20;;;;;;;3.49;56.26;100974.22;5053440;28;20033;-73
2022/03/10 04:49:31;;;;;;;0.20;0.20;;;;;;;3.47;57.47;100973.72;5052153;28;20083;-73
2022/03/10 04:51:57;;;;;;;0.20;0.20;;;;;;;3.32;57.21;100945.28;5053984;28;20033;-73
2022/03/10 04:54:22;;;;;;;0.20;0.20;;;;;;;3.51;57.33;100975.56;5035630;28;20460;-73
2022/03/10 04:56:48;;;;;;;0.20;0.20;;;;;;;3.49;57.65;100990.75;5035256;28;20071;-73
2022/03/10 04:59:13;;;;;;;0.20;0.20;;;;;;;3.43;55.86;100959.72;5036167;28;20120;-73
2022/03/10 05:01:39;;;;;;;0.20;0.20;;;;;;;3.50;56.46;100973.94;5035553;28;20033;-73
2022/03/10 05:04:04;;;;;;;0.20;0.20;;;;;;;3.53;56.37;100976.09;5036375;28;20036;-73
2022/03/10 05:06:30;;;;;;;0.20;0.20;;;;;;;3.37;56.77;100964.47;5039093;28;20021;-73
2022/03/10 05:08:55;;;;;;;0.20;0.20;;;;;;;3.46;57.36;100978.38;5057140;28;20037;-73
2022/03/10 05:11:21;;;;;;;0.20;0.20;;;;;;;3.46;58.01;100977.56;5039609;28;20067;-73
2022/03/10 05:13:50;;;;;;;0.20;0.20;;;;;;;3.50;57.14;100976.69;5057746;28;20029;-73
2022/03/10 05:16:15;;;;;;;0.20;0.20;;;;;;;3.50;55.79;100970.38;5039728;28;20130;-73
2022/03/10 05:18:41;;;;;;;0.20;0.20;;;;;;;3.47;56.63;100971.78;5056044;28;20029;-73
2022/03/10 05:21:09;;;;;;;0.20;0.20;;;;;;;3.57;56.34;100977.16;5039296;28;20037;-74
2022/03/10 05:23:35;;;;;;;0.20;0.20;;;;;;;3.54;56.20;100980.47;5040065;28;20131;-73
2022/03/10 05:26:01;;;;;;;0.20;0.20;;;;;;;3.45;56.38;100986.94;5057603;28;20450;-73
2022/03/10 05:28:27;;;;;;;0.20;0.20;;;;;;;3.44;56.80;100982.56;5039771;28;20029;-73
2022/03/10 05:30:52;;;;;;;0.20;0.20;;;;;;;3.49;56.63;100983.31;5056594;28;20525;-73
2022/03/10 05:33:18;;;;;;;0.20;0.20;;;;;;;3.52;56.97;100988.22;5038981;28;20060;-73
2022/03/10 05:35:43;;;;;;;0.20;0.20;;;;;;;3.51;56.66;100964.56;5039532;28;20067;-73
2022/03/10 05:38:09;;;;;;;0.20;0.20;;;;;;;4.44;55.57;100982.09;5038722;28;20487;-73
2022/03/10 05:40:35;;;;;;;0.20;0.20;;;;;;;5.11;53.68;100983.59;5038826;28;20116;-74
2022/03/10 05:43:01;;;;;;;0.20;0.20;;;;;;;5.86;51.49;100985.00;5056978;28;20068;-73
2022/03/10 05:45:26;;;;;;;0.20;0.20;;;;;;;6.32;49.72;100973.72;5037386;28;20038;-73
2022/03/10 05:47:55;;;;;;;0.20;0.20;;;;;;;6.93;48.12;100993.44;5038625;28;20539;-73
2022/03/10 05:50:22;;;;;;;0.20;0.20;;;;;;;7.50;47.05;100985.13;5038427;28;20021;-73
2022/03/10 05:52:47;;;;;;;0.20;0.20;;;;;;;8.03;45.88;100992.34;5039006;28;20055;-73
2022/03/10 05:55:14;;;;;;;0.20;0.20;;;;;;;8.66;44.04;100993.63;5038139;28;20118;-73
2022/03/10 05:57:40;;;;;;;0.20;0.20;;;;;;;9.16;42.36;100995.72;5038999;28;20111;-73
2022/03/10 06:00:10;;;;;;;0.20;0.20;;;;;;;9.61;41.34;100992.38;5038670;28;20434;-73
2022/03/10 06:02:36;;;;;;;0.20;0.20;;;;;;;10.11;40.89;100997.91;5055933;28;20060;-73
2022/03/10 06:05:05;;;;;;;0.20;0.20;;;;;;;10.56;40.12;101005.53;5038554;28;20123;-73
2022/03/10 06:07:31;;;;;;;0.20;0.20;;;;;;;11.15;39.04;101012.75;5038140;28;20087;-73
2022/03/10 06:09:57;;;;;;;0.20;0.20;;;;;;;11.66;37.74;101002.06;5038300;28;20029;-73
2022/03/10 06:12:25;;;;;;;0.20;0.20;;;;;;;12.23;36.77;101001.84;5038472;28;20063;-73
2022/03/10 06:14:57;;;;;;;0.20;0.20;;;;;;;12.82;34.97;100972.34;5038020;28;20029;-73
2022/03/10 06:17:24;;;;;;;0.20;0.20;;;;;;;13.30;34.35;100987.16;5037660;28;20025;-73
2022/03/10 06:19:50;;;;;;;0.20;0.20;;;;;;;13.66;32.94;100993.63;5037902;28;20040;-73
2022/03/10 06:22:26;;;;;;;0.10;0.10;;;;;;;14.15;32.91;100989.09;5034679;28;20531;-73
2022/03/10 06:24:51;;;;;;;0.20;0.20;;;;;;;14.47;31.91;100983.38;5051763;28;20025;-73
2022/03/10 06:27:18;;;;;;;0.20;0.20;;;;;;;14.71;31.79;100992.66;5055709;28;20029;-73
2022/03/10 06:29:44;;;;;;;0.20;0.20;;;;;;;15.09;31.61;100998.16;5034714;28;20036;-74
2022/03/10 06:32:12;;;;;;;0.20;0.20;;;;;;;15.31;29.81;100984.50;5014198;28;20366;-74
2022/03/10 06:34:38;;;;;;;0.20;0.20;;;;;;;15.85;30.02;100994.56;5055715;28;20464;-74
2022/03/10 06:37:05;;;;;;;0.20;0.20;;;;;;;15.71;30.73;101004.41;5038084;28;20028;-74
2022/03/10 06:39:31;;;;;;;0.20;0.20;;;;;;;15.92;29.19;101009.50;5037582;28;20139;-73
2022/03/10 06:41:57;;;;;;;0.20;0.20;;;;;;;16.09;28.83;101010.97;5038163;28;20045;-72
2022/03/10 06:44:23;;;;;;;0.20;0.20;;;;;;;16.48;28.59;101021.88;5055643;28;20021;-73
2022/03/10 06:46:49;;;;;;;0.20;0.20;;;;;;;16.42;26.44;101012.16;5037504;28;20434;-73
2022/03/10 06:49:14;;;;;;;0.20;0.20;;;;;;;16.63;27.59;101023.66;5037311;28;20040;-74
2022/03/10 06:51:40;;;;;;;0.20;0.20;;;;;;;16.30;25.79;101012.41;5055320;28;20033;-74
2022/03/10 06:54:05;;;;;;;0.20;0.20;;;;;;;14.95;27.11;101020.31;5037664;28;20040;-74
2022/03/10 06:56:31;;;;;;;0.10;0.10;;;;;;;15.57;26.68;101017.38;5037230;28;20083;-73
2022/03/10 06:58:57;;;;;;;0.20;0.20;;;;;;;15.11;26.41;101017.41;5037114;28;20036;-74
2022/03/10 07:01:22;;;;;;;0.20;0.20;;;;;;;15.46;26.58;101020.81;5054961;28;20032;-73
2022/03/10 07:03:48;;;;;;;0.20;0.20;;;;;;;15.17;26.25;101025.09;5037640;28;20064;-73
2022/03/10 07:06:13;;;;;;;0.20;0.20;;;;;;;15.40;25.87;101027.13;5037447;28;20578;-73
2022/03/10 07:08:39;;;;;;;0.20;0.20;;;;;;;15.48;25.81;101031.63;5054681;28;20053;-73
2022/03/10 07:11:05;;;;;;;0.20;0.20;;;;;;;15.42;25.63;101024.72;5037045;28;20021;-74
2022/03/10 07:13:34;;;;;;;0.20;0.20;;;;;;;15.50;27.23;101028.44;5037314;28;20029;-73
2022/03/10 07:15:59;;;;;;;0.20;0.20;;;;;;;16.51;25.80;101043.56;5020842;28;20147;-73
2022/03/10 07:18:25;;;;;;;0.20;0.20;;;;;;;15.68;25.67;101038.00;5036943;28;20040;-73
2022/03/10 07:20:50;;;;;;;0.10;0.10;;;;;;;15.94;24.44;101034.41;5037437;28;20059;-73
2022/03/10 07:23:16;;;;;;;0.20;0.20;;;;;;;15.88;25.47;101033.09;5037548;28;20060;-74
2022/03/10 07:25:43;;;;;;;0.20;0.20;;;;;;;15.97;25.81;101042.03;5056690;28;20475;-74
2022/03/10 07:28:09;;;;;;;0.20;0.20;;;;;;;16.32;25.03;101035.31;5056724;28;20028;-74
2022/03/10 07:30:35;;;;;;;0.20;0.20;;;;;;;16.37;25.06;101029.34;5039931;28;20047;-73
2022/03/10 07:33:01;;;;;;;0.10;0.10;;;;;;;15.57;25.59;101026.59;5038126;28;20033;-74
2022/03/10 07:35:27;;;;;;;0.10;0.10;;;;;;;16.17;25.18;101021.06;5022373;28;20040;-73
2022/03/10 07:37:54;;;;;;;0.10;0.10;;;;;;;16.98;24.78;101037.31;5036725;28;20020;-73
2022/03/10 07:40:20;;;;;;;0.10;0.10;;;;;;;16.96;23.62;101031.28;5037033;28;20025;-73
2022/03/10 07:42:46;;;;;;;0.10;0.10;;;;;;;17.32;24.24;101030.81;5036894;28;20032;-72
2022/03/10 07:45:12;;;;;;;0.20;0.20;;;;;;;17.73;23.66;101035.16;5036509;28;20025;-73
2022/03/10 07:47:38;;;;;;;0.10;0.10;;;;;;;17.38;24.26;101034.88;5055087;28;20083;-73
2022/03/10 07:50:05;;;;;;;0.20;0.20;;;;;;;17.99;23.42;101031.31;5036328;28;20048;-73
2022/03/10 07:52:31;;;;;;;0.10;0.10;;;;;;;18.50;22.91;101026.75;5055205;28;20025;-74
2022/03/10 07:54:56;;;;;;;0.10;0.10;;;;;;;18.84;23.01;101036.56;5036265;28;20051;-73
2022/03/10 07:57:22;;;;;;;0.10;0.10;;;;;;;18.55;22.24;101029.19;5036110;28;20083;-73
2022/03/10 07:59:47;;;;;;;0.10;0.10;;;;;;;18.74;21.99;101030.88;5036140;28;20057;-73
2022/03/10 08:02:13;;;;;;;0.10;0.10;;;;;;;19.10;22.07;101037.41;5035976;28;20095;-74
2022/03/10 08:04:39;;;;;;;0.10;0.10;;;;;;;18.97;21.93;101036.19;5035982;28;20021;-74
2022/03/10 08:07:06;;;;;;;0.10;0.10;;;;;;;19.41;21.19;101030.19;5054318;28;20587;-74
2022/03/10 08:09:31;;;;;;;0.10;0.10;;;;;;;17.39;20.87;101014.78;5035999;28;20063;-74
2022/03/10 08:11:57;;;;;;;0.10;0.10;;;;;;;17.56;21.86;101030.19;5035966;28;20029;-74
2022/03/10 08:14:22;;;;;;;0.10;0.10;;;;;;;18.17;21.62;101016.56;5035721;28;20028;-74
2022/03/10 08:16:48;;;;;;;0.17;0.17;;;;;;;18.33;21.48;101020.66;5036240;28;20178;-74
2022/03/10 08:19:13;;;;;;;0.10;0.10;;;;;;;18.83;21.06;101032.13;5036299;28;20029;-73
2022/03/10 08:21:39;;;;;;;0.10;0.10;;;;;;;18.36;20.25;101015.44;5035375;28;20133;-74
2022/03/10 08:24:05;;;;;;;0.10;0.10;;;;;;;18.72;20.40;101017.19;5035798;28;20025;-74
2022/03/10 08:26:31;;;;;;;0.10;0.10;;;;;;;18.76;20.65;101028.50;5035702;28;20025;-74
2022/03/10 08:28:56;;;;;;;0.10;0.10;;;;;;;17.37;21.19;101024.84;5035851;28;20090;-74
2022/03/10 08:31:22;;;;;;;0.10;0.10;;;;;;;17.79;21.19;101021.56;5035930;28;20021;-74
2022/03/10 08:33:48;;;;;;;0.10;0.10;;;;;;;17.69;20.79;101023.06;5053880;28;20367;-74
2022/03/10 08:36:13;;;;;;;0.10;0.10;;;;;;;18.01;21.27;101025.31;5036444;28;20357;-74
2022/03/10 08:38:39;;;;;;;0.10;0.10;;;;;;;18.63;20.91;101030.00;5036379;28;20430;-74
2022/03/10 08:41:05;;;;;;;0.20;0.20;;;;;;;18.23;20.60;101032.69;5039485;28;20087;-74
2022/03/10 08:43:32;;;;;;;0.10;0.10;;;;;;;16.58;22.54;101026.81;5039809;28;20048;-73
2022/03/10 08:46:01;;;;;;;0.20;0.20;;;;;;;15.81;23.16;101025.38;5057829;28;20079;-74
2022/03/10 08:48:28;;;;;;;0.20;0.20;;;;;;;16.95;22.75;101037.28;5057511;28;20017;-74
2022/03/10 08:50:53;;;;;;;0.20;0.20;;;;;;;16.04;22.82;101014.09;5057532;28;20025;-74
2022/03/10 08:53:19;;;;;;;0.20;0.20;;;;;;;17.13;22.45;101034.66;5039485;28;20037;-74
2022/03/10 08:55:44;;;;;;;0.20;0.20;;;;;;;16.77;22.65;101032.25;5039624;28;20029;-74
2022/03/10 08:58:10;;;;;;;0.20;0.20;;;;;;;16.39;23.20;101019.34;5039567;28;20029;-74
2022/03/10 09:00:36;;;;;;;0.17;0.17;;;;;;;15.91;23.40;101019.09;5040074;28;20071;-74
2022/03/10 09:03:02;;;;;;;0.20;0.20;;;;;;;16.09;23.76;101027.00;5039666;28;20186;-74
2022/03/10 09:05:27;;;;;;;0.20;0.20;;;;;;;16.71;23.21;101024.56;5039439;28;20459;-74
2022/03/10 09:07:53;;;;;;;0.20;0.20;;;;;;;16.95;22.74;101012.00;5057524;28;20100;-74
2022/03/10 09:10:19;;;;;;;0.20;0.20;;;;;;;16.91;22.23;101016.75;5039287;28;20033;-74
2022/03/10 09:12:44;;;;;;;0.20;0.20;;;;;;;17.87;22.41;101017.59;5039742;28;20075;-74
2022/03/10 09:15:10;;;;;;;0.20;0.20;;;;;;;17.89;21.32;101014.38;5039431;28;20062;-74
2022/03/10 09:17:37;;;;;;;0.15;0.15;;;;;;;17.96;21.47;101028.50;5057331;28;20528;-74
2022/03/10 09:20:05;;;;;;;0.10;0.10;;;;;;;17.58;22.17;101010.09;5022724;28;20549;-74
2022/03/10 09:22:31;;;;;;;0.20;0.20;;;;;;;17.15;22.13;101016.22;5056601;28;20057;-74
2022/03/10 09:24:57;;;;;;;0.20;0.20;;;;;;;17.41;21.62;101005.97;5056608;28;20060;-74
2022/03/10 09:27:22;;;;;;;0.10;0.10;;;;;;;17.05;22.22;101022.53;5039185;28;20075;-74
2022/03/10 09:29:48;;;;;;;0.20;0.20;;;;;;;17.35;22.33;101008.31;5039102;28;20024;-74
2022/03/10 09:32:14;;;;;;;0.10;0.10;;;;;;;18.09;21.95;101012.88;5039681;28;20025;-74
2022/03/10 09:34:40;;;;;;;0.10;0.10;;;;;;;18.23;21.70;101012.97;5057059;28;20431;-74
2022/03/10 09:37:06;;;;;;;0.10;0.10;;;;;;;19.01;21.01;100997.50;5057354;28;20037;-74
2022/03/10 09:39:32;;;;;;;0.10;0.10;;;;;;;19.20;20.48;100999.16;5057208;28;20518;-74
2022/03/10 09:41:59;;;;;;;0.10;0.10;;;;;;;19.36;20.29;100983.44;5056910;28;20464;-74
2022/03/10 09:44:28;;;;;;;0.10;0.10;;;;;;;19.32;20.73;100999.53;5038971;28;20025;-74
2022/03/10 09:46:54;;;;;;;0.10;0.10;;;;;;;18.98;20.76;101001.94;5039028;28;20033;-74
2022/03/10 09:49:20;;;;;;;0.10;0.10;;;;;;;19.29;20.16;100994.72;5056132;28;20537;-74
2022/03/10 09:51:48;;;;;;;0.10;0.10;;;;;;;18.65;20.65;100974.88;5037818;28;20029;-73
2022/03/10 09:54:14;;;;;;;0.10;0.10;;;;;;;18.97;20.32;100974.16;5056557;28;20545;-73
2022/03/10 09:56:43;;;;;;;0.20;0.20;;;;;;;19.18;20.42;100987.47;5056114;28;20025;-73
2022/03/10 09:59:10;;;;;;;0.10;0.10;;;;;;;17.99;20.58;100974.22;5038388;28;20025;-74
2022/03/10 10:01:36;;;;;;;0.10;0.10;;;;;;;18.11;20.99;100975.88;5056009;28;20033;-73
2022/03/10 10:04:01;;;;;;;0.17;0.17;;;;;;;19.03;20.52;100976.19;5039450;28;20051;-74
2022/03/10 10:06:27;;;;;;;0.10;0.10;;;;;;;18.77;20.61;100982.97;5055954;28;20036;-73
2022/03/10 10:08:55;;;;;;;0.10;0.10;;;;;;;18.55;20.32;100968.00;5056913;28;20029;-73
2022/03/10 10:11:30;;;;;;;0.10;0.10;;;;;;;17.28;21.49;100968.91;5038448;28;20051;-74
2022/03/10 10:13:56;;;;;;;0.10;0.10;;;;;;;18.54;21.07;100965.59;5034856;28;20116;-73
2022/03/10 10:16:22;;;;;;;0.17;0.17;;;;;;;18.97;20.08;100971.34;5035896;28;20057;-74
2022/03/10 10:18:55;;;;;;;0.20;0.20;;;;;;;19.17;20.10;100943.53;5056172;28;20100;-74
2022/03/10 10:21:22;;;;;;;0.10;0.10;;;;;;;18.53;20.63;100966.78;5056249;28;20573;-74
2022/03/10 10:23:49;;;;;;;0.10;0.10;;;;;;;19.04;20.41;100960.06;5038170;28;20029;-74
2022/03/10 10:26:15;;;;;;;0.20;0.20;;;;;;;19.74;19.89;100958.41;5056405;28;20021;-74
2022/03/10 10:28:43;;;;;;;0.20;0.20;;;;;;;19.98;19.51;100953.91;5038380;28;20562;-73
2022/03/10 10:31:11;;;;;;;0.10;0.10;;;;;;;19.99;19.49;100951.91;5039335;28;20497;-75
2022/03/10 10:33:39;;;;;;;0.10;0.10;;;;;;;20.17;19.17;100952.63;5040518;28;20029;-75
2022/03/10 10:36:12;;;;;;;0.10;0.10;;;;;;;19.08;19.03;100927.03;5040759;28;20375;-75
2022/03/10 10:38:37;;;;;;;;;;;;;;;19.88;19.63;100946.28;5038613;28;20029;-74
2022/03/10 10:41:24;;;;;;;0.10;0.10;;;;;;;20.30;19.19;100938.84;5038663;28;20058;-74
2022/03/10 10:44:05;;;;;;;0.10;0.10;;;;;;;20.28;19.55;100947.72;5037932;28;20033;-74
2022/03/10 10:46:30;;;;;;;0.20;0.20;;;;;;;19.32;19.53;100939.50;5037973;28;20147;-74
2022/03/10 10:49:05;;;;;;;0.10;0.10;;;;;;;19.42;19.87;100935.06;5055523;28;20040;-75
2022/03/10 10:51:37;;;;;;;0.15;0.15;;;;;;;19.56;19.71;100940.69;5037756;28;20025;-74
2022/03/10 10:54:07;;;;;;;0.10;0.10;;;;;;;19.33;19.52;100938.28;5037576;28;20033;-73
2022/03/10 10:56:34;;;;;;;0.20;0.20;;;;;;;18.49;20.70;100924.50;5055236;28;20028;-74
2022/03/10 10:59:02;;;;;;;0.10;0.10;;;;;;;17.96;21.41;100929.97;5055130;28;20064;-74
2022/03/10 11:01:37;;;;;;;0.13;0.13;;;;;;;18.13;21.53;100928.44;5037448;28;20025;-75
2022/03/10 11:04:05;;;;;;;0.10;0.10;;;;;;;17.79;21.32;100926.69;5055037;28;20025;-74
2022/03/10 11:06:34;;;;;;;0.20;0.20;;;;;;;17.67;21.05;100928.97;5037433;28;20360;-74
2022/03/10 11:09:00;;;;;;;0.17;0.17;;;;;;;17.62;22.16;100932.16;5037401;28;20467;-74
2022/03/10 11:11:26;;;;;;;0.20;0.20;;;;;;;18.02;22.20;100934.00;5037337;28;20028;-74
2022/03/10 11:13:52;;;;;;;0.20;0.20;;;;;;;18.66;21.54;100920.13;5037095;28;20029;-74
2022/03/10 11:16:20;;;;;;;0.10;0.10;;;;;;;18.98;21.29;100922.19;5036915;28;20035;-74
2022/03/10 11:18:51;;;;;;;0.10;0.10;;;;;;;19.41;20.98;100922.16;5036777;28;20035;-74
2022/03/10 11:21:29;;;;;;;0.20;0.20;;;;;;;19.54;20.80;100921.31;5034279;28;20049;-74
2022/03/10 11:24:23;;;;;;;0.10;0.10;;;;;;;18.99;20.75;100907.69;5036837;28;20054;-74
2022/03/10 11:27:01;;;;;;;0.17;0.17;;;;;;;18.41;20.99;100897.50;5014924;28;20555;-74
2022/03/10 11:29:27;;;;;;;0.20;0.20;;;;;;;17.70;21.58;100906.47;5054262;28;20025;-74
2022/03/10 11:31:55;;;;;;;0.10;0.10;;;;;;;18.04;21.67;100900.63;5036703;28;20044;-74